sensor_id;sensor_type;location;lat;lon;timestamp;temperature;humidity
12156;DHT22;6141;49.092;8.516;2023-05-16T00:01:30;17.40;49.20
12156;DHT22;6141;49.092;8.516;2023-05-16T00:04:02;17.40;49.50
12156;DHT22;6141;49.092;8.516;2023-05-16T00:06:30;17.40;49.00
12156;DHT22;6141;49.092;8.516;2023-05-16T00:09:00;17.30;49.80
12156;DHT22;6141;49.092;8.516;2023-05-16T00:11:29;17.20;50.40
12156;DHT22;6141;49.092;8.516;2023-05-16T00:13:58;17.00;50.90
12156;DHT22;6141;49.092;8.516;2023-05-16T00:16:30;16.80;51.60
12156;DHT22;6141;49.092;8.516;2023-05-16T00:18:59;16.50;53.40
12156;DHT22;6141;49.092;8.516;2023-05-16T00:21:29;16.20;53.50
12156;DHT22;6141;49.092;8.516;2023-05-16T00:23:58;16.10;54.30
12156;DHT22;6141;49.092;8.516;2023-05-16T00:26:26;16.20;54.40
12156;DHT22;6141;49.092;8.516;2023-05-16T00:28:54;16.40;53.40
12156;DHT22;6141;49.092;8.516;2023-05-16T00:31:23;16.50;52.40
12156;DHT22;6141;49.092;8.516;2023-05-16T00:33:53;16.50;52.70
12156;DHT22;6141;49.092;8.516;2023-05-16T00:36:24;16.40;52.40
12156;DHT22;6141;49.092;8.516;2023-05-16T00:38:52;16.40;52.60
12156;DHT22;6141;49.092;8.516;2023-05-16T00:41:20;16.40;52.50
12156;DHT22;6141;49.092;8.516;2023-05-16T00:43:50;16.70;51.40
12156;DHT22;6141;49.092;8.516;2023-05-16T00:46:20;16.80;50.60
12156;DHT22;6141;49.092;8.516;2023-05-16T00:48:49;16.90;49.50
12156;DHT22;6141;49.092;8.516;2023-05-16T00:51:19;17.00;48.80
12156;DHT22;6141;49.092;8.516;2023-05-16T00:53:48;17.10;48.40
12156;DHT22;6141;49.092;8.516;2023-05-16T00:56:18;17.10;47.40
12156;DHT22;6141;49.092;8.516;2023-05-16T00:58:47;17.10;46.00
12156;DHT22;6141;49.092;8.516;2023-05-16T01:01:17;17.00;46.40
12156;DHT22;6141;49.092;8.516;2023-05-16T01:03:47;16.90;46.60
12156;DHT22;6141;49.092;8.516;2023-05-16T01:06:16;16.90;46.70
12156;DHT22;6141;49.092;8.516;2023-05-16T01:08:46;16.80;46.50
12156;DHT22;6141;49.092;8.516;2023-05-16T01:11:21;16.70;46.50
12156;DHT22;6141;49.092;8.516;2023-05-16T01:13:58;16.80;46.90
12156;DHT22;6141;49.092;8.516;2023-05-16T01:16:32;16.90;46.40
12156;DHT22;6141;49.092;8.516;2023-05-16T01:19:12;16.70;46.50
12156;DHT22;6141;49.092;8.516;2023-05-16T01:21:49;16.70;47.80
12156;DHT22;6141;49.092;8.516;2023-05-16T01:24:31;16.80;46.70
12156;DHT22;6141;49.092;8.516;2023-05-16T01:27:03;16.90;46.80
12156;DHT22;6141;49.092;8.516;2023-05-16T01:29:32;16.80;48.00
12156;DHT22;6141;49.092;8.516;2023-05-16T01:32:04;16.80;47.90
12156;DHT22;6141;49.092;8.516;2023-05-16T01:34:32;16.80;47.70
12156;DHT22;6141;49.092;8.516;2023-05-16T01:37:07;16.80;47.80
12156;DHT22;6141;49.092;8.516;2023-05-16T01:39:43;16.70;47.80
12156;DHT22;6141;49.092;8.516;2023-05-16T01:42:14;16.70;47.40
12156;DHT22;6141;49.092;8.516;2023-05-16T01:44:45;16.80;47.70
12156;DHT22;6141;49.092;8.516;2023-05-16T01:47:19;16.80;47.10
12156;DHT22;6141;49.092;8.516;2023-05-16T01:49:56;16.80;46.50
12156;DHT22;6141;49.092;8.516;2023-05-16T01:52:27;16.70;46.00
12156;DHT22;6141;49.092;8.516;2023-05-16T01:55:01;16.80;45.30
12156;DHT22;6141;49.092;8.516;2023-05-16T01:57:34;16.80;46.40
12156;DHT22;6141;49.092;8.516;2023-05-16T02:00:04;16.70;47.20
12156;DHT22;6141;49.092;8.516;2023-05-16T02:02:40;16.80;47.00
12156;DHT22;6141;49.092;8.516;2023-05-16T02:05:09;16.70;46.30
12156;DHT22;6141;49.092;8.516;2023-05-16T02:07:38;16.70;47.20
12156;DHT22;6141;49.092;8.516;2023-05-16T02:10:08;16.70;46.70
12156;DHT22;6141;49.092;8.516;2023-05-16T02:12:38;16.80;46.80
12156;DHT22;6141;49.092;8.516;2023-05-16T02:15:08;16.80;46.40
12156;DHT22;6141;49.092;8.516;2023-05-16T02:17:38;16.90;46.60
12156;DHT22;6141;49.092;8.516;2023-05-16T02:20:10;16.90;46.10
12156;DHT22;6141;49.092;8.516;2023-05-16T02:22:49;16.70;46.40
12156;DHT22;6141;49.092;8.516;2023-05-16T02:25:27;16.70;46.80
12156;DHT22;6141;49.092;8.516;2023-05-16T02:27:58;16.60;47.10
12156;DHT22;6141;49.092;8.516;2023-05-16T02:30:27;16.70;46.30
12156;DHT22;6141;49.092;8.516;2023-05-16T02:32:57;16.70;46.80
12156;DHT22;6141;49.092;8.516;2023-05-16T02:35:25;16.70;46.10
12156;DHT22;6141;49.092;8.516;2023-05-16T02:37:55;16.60;46.80
12156;DHT22;6141;49.092;8.516;2023-05-16T02:40:24;16.40;47.20
12156;DHT22;6141;49.092;8.516;2023-05-16T02:42:52;16.40;47.90
12156;DHT22;6141;49.092;8.516;2023-05-16T02:45:22;16.30;47.50
12156;DHT22;6141;49.092;8.516;2023-05-16T02:47:51;16.20;47.50
12156;DHT22;6141;49.092;8.516;2023-05-16T02:50:19;16.20;48.30
12156;DHT22;6141;49.092;8.516;2023-05-16T02:52:48;16.20;48.00
12156;DHT22;6141;49.092;8.516;2023-05-16T02:55:16;16.30;47.10
12156;DHT22;6141;49.092;8.516;2023-05-16T02:57:48;16.30;47.70
12156;DHT22;6141;49.092;8.516;2023-05-16T03:00:19;16.30;47.50
12156;DHT22;6141;49.092;8.516;2023-05-16T03:02:49;16.20;47.90
12156;DHT22;6141;49.092;8.516;2023-05-16T03:05:18;16.10;48.00
12156;DHT22;6141;49.092;8.516;2023-05-16T03:07:46;16.30;47.70
12156;DHT22;6141;49.092;8.516;2023-05-16T03:10:15;16.40;46.90
12156;DHT22;6141;49.092;8.516;2023-05-16T03:12:44;16.40;46.50
12156;DHT22;6141;49.092;8.516;2023-05-16T03:15:13;16.30;47.10
12156;DHT22;6141;49.092;8.516;2023-05-16T03:17:42;16.30;47.10
12156;DHT22;6141;49.092;8.516;2023-05-16T03:20:12;16.40;46.40
12156;DHT22;6141;49.092;8.516;2023-05-16T03:22:42;16.10;46.50
12156;DHT22;6141;49.092;8.516;2023-05-16T03:25:11;15.90;48.40
12156;DHT22;6141;49.092;8.516;2023-05-16T03:27:41;15.80;48.80
12156;DHT22;6141;49.092;8.516;2023-05-16T03:30:11;15.60;49.50
12156;DHT22;6141;49.092;8.516;2023-05-16T03:32:40;15.50;49.50
12156;DHT22;6141;49.092;8.516;2023-05-16T03:35:08;15.00;51.70
12156;DHT22;6141;49.092;8.516;2023-05-16T03:37:41;15.00;52.60
12156;DHT22;6141;49.092;8.516;2023-05-16T03:40:10;15.10;52.10
12156;DHT22;6141;49.092;8.516;2023-05-16T03:42:38;15.20;51.30
12156;DHT22;6141;49.092;8.516;2023-05-16T03:45:07;15.30;50.90
12156;DHT22;6141;49.092;8.516;2023-05-16T03:47:36;15.40;50.20
12156;DHT22;6141;49.092;8.516;2023-05-16T03:50:06;15.20;51.30
12156;DHT22;6141;49.092;8.516;2023-05-16T03:52:36;15.00;51.30
12156;DHT22;6141;49.092;8.516;2023-05-16T03:55:07;15.10;52.10
12156;DHT22;6141;49.092;8.516;2023-05-16T03:57:36;15.00;52.10
12156;DHT22;6141;49.092;8.516;2023-05-16T04:00:06;15.10;51.00
12156;DHT22;6141;49.092;8.516;2023-05-16T04:02:37;15.10;52.30
12156;DHT22;6141;49.092;8.516;2023-05-16T04:05:08;15.00;52.20
12156;DHT22;6141;49.092;8.516;2023-05-16T04:07:37;14.80;53.20
12156;DHT22;6141;49.092;8.516;2023-05-16T04:10:09;14.80;53.40
12156;DHT22;6141;49.092;8.516;2023-05-16T04:12:39;14.60;53.40
12156;DHT22;6141;49.092;8.516;2023-05-16T04:15:08;14.60;53.50
12156;DHT22;6141;49.092;8.516;2023-05-16T04:17:37;14.60;53.70
12156;DHT22;6141;49.092;8.516;2023-05-16T04:20:06;14.60;53.30
12156;DHT22;6141;49.092;8.516;2023-05-16T04:22:35;14.50;54.60
12156;DHT22;6141;49.092;8.516;2023-05-16T04:25:05;14.60;54.50
12156;DHT22;6141;49.092;8.516;2023-05-16T04:27:36;14.80;51.70
12156;DHT22;6141;49.092;8.516;2023-05-16T04:30:05;14.70;53.40
12156;DHT22;6141;49.092;8.516;2023-05-16T04:32:34;14.70;53.00
12156;DHT22;6141;49.092;8.516;2023-05-16T04:35:03;14.80;51.90
12156;DHT22;6141;49.092;8.516;2023-05-16T04:37:33;14.60;53.90
12156;DHT22;6141;49.092;8.516;2023-05-16T04:40:02;14.40;54.80
12156;DHT22;6141;49.092;8.516;2023-05-16T04:42:30;14.40;54.80
12156;DHT22;6141;49.092;8.516;2023-05-16T04:45:00;14.40;54.60
12156;DHT22;6141;49.092;8.516;2023-05-16T04:47:32;14.40;55.20
12156;DHT22;6141;49.092;8.516;2023-05-16T04:50:02;14.50;53.50
12156;DHT22;6141;49.092;8.516;2023-05-16T04:52:30;14.60;53.80
12156;DHT22;6141;49.092;8.516;2023-05-16T04:54:59;14.50;53.30
12156;DHT22;6141;49.092;8.516;2023-05-16T04:57:28;14.30;55.10
12156;DHT22;6141;49.092;8.516;2023-05-16T04:59:56;14.20;55.00
12156;DHT22;6141;49.092;8.516;2023-05-16T05:02:28;14.00;55.60
12156;DHT22;6141;49.092;8.516;2023-05-16T05:04:57;14.10;56.10
12156;DHT22;6141;49.092;8.516;2023-05-16T05:07:25;14.30;55.10
12156;DHT22;6141;49.092;8.516;2023-05-16T05:09:55;14.30;55.10
12156;DHT22;6141;49.092;8.516;2023-05-16T05:12:23;14.30;55.10
12156;DHT22;6141;49.092;8.516;2023-05-16T05:14:53;14.50;54.40
12156;DHT22;6141;49.092;8.516;2023-05-16T05:17:22;14.20;55.00
12156;DHT22;6141;49.092;8.516;2023-05-16T05:19:53;14.00;56.20
12156;DHT22;6141;49.092;8.516;2023-05-16T05:22:21;14.00;56.40
12156;DHT22;6141;49.092;8.516;2023-05-16T05:24:50;14.10;56.40
12156;DHT22;6141;49.092;8.516;2023-05-16T05:27:19;14.10;55.30
12156;DHT22;6141;49.092;8.516;2023-05-16T05:29:47;13.90;57.10
12156;DHT22;6141;49.092;8.516;2023-05-16T05:32:15;14.10;57.20
12156;DHT22;6141;49.092;8.516;2023-05-16T05:34:44;14.10;54.30
12156;DHT22;6141;49.092;8.516;2023-05-16T05:37:14;13.90;56.70
12156;DHT22;6141;49.092;8.516;2023-05-16T05:39:42;13.90;57.30
12156;DHT22;6141;49.092;8.516;2023-05-16T05:42:11;13.90;54.70
12156;DHT22;6141;49.092;8.516;2023-05-16T05:44:40;13.80;58.10
12156;DHT22;6141;49.092;8.516;2023-05-16T05:47:08;13.80;57.20
12156;DHT22;6141;49.092;8.516;2023-05-16T05:49:38;14.00;57.60
12156;DHT22;6141;49.092;8.516;2023-05-16T05:52:06;14.20;55.30
12156;DHT22;6141;49.092;8.516;2023-05-16T05:54:37;14.30;55.10
12156;DHT22;6141;49.092;8.516;2023-05-16T05:57:06;14.60;54.40
12156;DHT22;6141;49.092;8.516;2023-05-16T05:59:34;14.70;54.00
12156;DHT22;6141;49.092;8.516;2023-05-16T06:02:03;14.60;52.90
12156;DHT22;6141;49.092;8.516;2023-05-16T06:04:33;14.50;53.90
12156;DHT22;6141;49.092;8.516;2023-05-16T06:07:01;14.40;55.00
12156;DHT22;6141;49.092;8.516;2023-05-16T06:09:30;14.50;54.50
12156;DHT22;6141;49.092;8.516;2023-05-16T06:12:00;14.30;54.30
12156;DHT22;6141;49.092;8.516;2023-05-16T06:14:32;14.10;54.90
12156;DHT22;6141;49.092;8.516;2023-05-16T06:17:02;14.30;56.00
12156;DHT22;6141;49.092;8.516;2023-05-16T06:19:30;14.30;55.10
12156;DHT22;6141;49.092;8.516;2023-05-16T06:22:00;14.30;55.20
12156;DHT22;6141;49.092;8.516;2023-05-16T06:24:28;14.10;54.90
12156;DHT22;6141;49.092;8.516;2023-05-16T06:26:57;14.00;55.60
12156;DHT22;6141;49.092;8.516;2023-05-16T06:29:27;14.00;56.40
12156;DHT22;6141;49.092;8.516;2023-05-16T06:31:56;14.00;57.10
12156;DHT22;6141;49.092;8.516;2023-05-16T06:34:25;14.10;55.60
12156;DHT22;6141;49.092;8.516;2023-05-16T06:36:56;14.20;55.70
12156;DHT22;6141;49.092;8.516;2023-05-16T06:39:25;14.20;55.00
12156;DHT22;6141;49.092;8.516;2023-05-16T06:41:56;14.10;54.90
12156;DHT22;6141;49.092;8.516;2023-05-16T06:44:24;14.00;55.70
12156;DHT22;6141;49.092;8.516;2023-05-16T06:46:55;13.90;55.80
12156;DHT22;6141;49.092;8.516;2023-05-16T06:49:24;13.90;56.90
12156;DHT22;6141;49.092;8.516;2023-05-16T06:51:53;14.10;56.20
12156;DHT22;6141;49.092;8.516;2023-05-16T06:54:21;14.20;55.00
12156;DHT22;6141;49.092;8.516;2023-05-16T06:56:50;14.30;55.10
12156;DHT22;6141;49.092;8.516;2023-05-16T06:59:19;14.40;54.70
12156;DHT22;6141;49.092;8.516;2023-05-16T07:01:48;14.40;54.20
12156;DHT22;6141;49.092;8.516;2023-05-16T07:04:18;14.30;53.30
12156;DHT22;6141;49.092;8.516;2023-05-16T07:06:49;14.20;55.20
12156;DHT22;6141;49.092;8.516;2023-05-16T07:09:18;14.20;55.00
12156;DHT22;6141;49.092;8.516;2023-05-16T07:11:46;14.30;54.60
12156;DHT22;6141;49.092;8.516;2023-05-16T07:14:17;14.20;53.40
12156;DHT22;6141;49.092;8.516;2023-05-16T07:16:46;14.10;55.50
12156;DHT22;6141;49.092;8.516;2023-05-16T07:19:16;14.20;54.20
12156;DHT22;6141;49.092;8.516;2023-05-16T07:21:46;14.30;54.60
12156;DHT22;6141;49.092;8.516;2023-05-16T07:24:15;14.30;53.30
12156;DHT22;6141;49.092;8.516;2023-05-16T07:26:43;14.30;55.10
12156;DHT22;6141;49.092;8.516;2023-05-16T07:29:12;14.30;53.40
12156;DHT22;6141;49.092;8.516;2023-05-16T07:31:40;14.30;53.40
12156;DHT22;6141;49.092;8.516;2023-05-16T07:34:09;14.50;52.90
12156;DHT22;6141;49.092;8.516;2023-05-16T07:36:39;14.40;51.80
12156;DHT22;6141;49.092;8.516;2023-05-16T07:39:09;14.20;52.20
12156;DHT22;6141;49.092;8.516;2023-05-16T07:41:38;14.20;53.30
12156;DHT22;6141;49.092;8.516;2023-05-16T07:44:06;14.20;52.60
12156;DHT22;6141;49.092;8.516;2023-05-16T07:46:38;14.10;54.00
12156;DHT22;6141;49.092;8.516;2023-05-16T07:49:09;14.10;52.50
12156;DHT22;6141;49.092;8.516;2023-05-16T07:51:38;14.00;53.00
12156;DHT22;6141;49.092;8.516;2023-05-16T07:54:09;14.00;54.50
12156;DHT22;6141;49.092;8.516;2023-05-16T07:56:38;14.10;53.50
12156;DHT22;6141;49.092;8.516;2023-05-16T07:59:06;14.10;52.80
12156;DHT22;6141;49.092;8.516;2023-05-16T08:01:36;14.00;52.10
12156;DHT22;6141;49.092;8.516;2023-05-16T08:04:04;14.00;51.70
12156;DHT22;6141;49.092;8.516;2023-05-16T08:06:33;14.10;52.60
12156;DHT22;6141;49.092;8.516;2023-05-16T08:09:03;14.10;52.30
12156;DHT22;6141;49.092;8.516;2023-05-16T08:11:34;14.10;53.30
12156;DHT22;6141;49.092;8.516;2023-05-16T08:14:03;14.00;53.90
12156;DHT22;6141;49.092;8.516;2023-05-16T08:16:31;14.20;53.70
12156;DHT22;6141;49.092;8.516;2023-05-16T08:19:00;14.30;53.50
12156;DHT22;6141;49.092;8.516;2023-05-16T08:21:29;14.40;51.40
12156;DHT22;6141;49.092;8.516;2023-05-16T08:23:58;14.40;52.10
12156;DHT22;6141;49.092;8.516;2023-05-16T08:26:27;14.40;51.60
12156;DHT22;6141;49.092;8.516;2023-05-16T08:28:57;14.50;52.70
12156;DHT22;6141;49.092;8.516;2023-05-16T08:31:26;14.50;51.30
12156;DHT22;6141;49.092;8.516;2023-05-16T08:33:55;14.40;52.00
12156;DHT22;6141;49.092;8.516;2023-05-16T08:36:23;14.40;51.70
12156;DHT22;6141;49.092;8.516;2023-05-16T08:38:52;14.30;52.30
12156;DHT22;6141;49.092;8.516;2023-05-16T08:41:24;14.30;52.10
12156;DHT22;6141;49.092;8.516;2023-05-16T08:43:52;14.40;51.90
12156;DHT22;6141;49.092;8.516;2023-05-16T08:46:24;14.20;50.90
12156;DHT22;6141;49.092;8.516;2023-05-16T08:48:58;14.30;51.50
12156;DHT22;6141;49.092;8.516;2023-05-16T08:51:31;14.30;51.20
12156;DHT22;6141;49.092;8.516;2023-05-16T08:54:05;14.10;50.40
12156;DHT22;6141;49.092;8.516;2023-05-16T08:56:37;14.10;50.80
12156;DHT22;6141;49.092;8.516;2023-05-16T08:59:06;14.10;50.80
12156;DHT22;6141;49.092;8.516;2023-05-16T09:01:36;14.10;51.20
12156;DHT22;6141;49.092;8.516;2023-05-16T09:04:07;14.00;48.70
12156;DHT22;6141;49.092;8.516;2023-05-16T09:06:36;13.70;50.80
12156;DHT22;6141;49.092;8.516;2023-05-16T09:09:05;13.60;51.90
12156;DHT22;6141;49.092;8.516;2023-05-16T09:11:38;13.80;53.30
12156;DHT22;6141;49.092;8.516;2023-05-16T09:14:07;13.90;52.50
12156;DHT22;6141;49.092;8.516;2023-05-16T09:16:37;14.10;51.80
12156;DHT22;6141;49.092;8.516;2023-05-16T09:19:06;14.20;49.60
12156;DHT22;6141;49.092;8.516;2023-05-16T09:21:35;14.20;49.90
12156;DHT22;6141;49.092;8.516;2023-05-16T09:24:05;14.20;49.20
12156;DHT22;6141;49.092;8.516;2023-05-16T09:26:36;14.30;48.70
12156;DHT22;6141;49.092;8.516;2023-05-16T09:29:10;14.20;48.20
12156;DHT22;6141;49.092;8.516;2023-05-16T09:31:41;14.10;47.20
12156;DHT22;6141;49.092;8.516;2023-05-16T09:34:10;14.00;47.00
12156;DHT22;6141;49.092;8.516;2023-05-16T09:36:39;13.90;45.90
12156;DHT22;6141;49.092;8.516;2023-05-16T09:39:10;13.90;47.40
12156;DHT22;6141;49.092;8.516;2023-05-16T09:41:42;14.00;48.70
12156;DHT22;6141;49.092;8.516;2023-05-16T09:44:13;14.20;48.90
12156;DHT22;6141;49.092;8.516;2023-05-16T09:46:47;14.40;47.90
12156;DHT22;6141;49.092;8.516;2023-05-16T09:49:16;14.50;47.00
12156;DHT22;6141;49.092;8.516;2023-05-16T09:51:45;14.60;47.00
12156;DHT22;6141;49.092;8.516;2023-05-16T09:54:13;14.50;47.50
12156;DHT22;6141;49.092;8.516;2023-05-16T09:56:48;14.50;48.30
12156;DHT22;6141;49.092;8.516;2023-05-16T09:59:17;14.40;48.70
12156;DHT22;6141;49.092;8.516;2023-05-16T10:01:49;14.40;49.10
12156;DHT22;6141;49.092;8.516;2023-05-16T10:04:20;14.30;49.00
12156;DHT22;6141;49.092;8.516;2023-05-16T10:06:50;14.60;48.50
12156;DHT22;6141;49.092;8.516;2023-05-16T10:09:18;14.70;49.40
12156;DHT22;6141;49.092;8.516;2023-05-16T10:11:48;14.80;49.50
12156;DHT22;6141;49.092;8.516;2023-05-16T10:14:18;14.90;49.40
12156;DHT22;6141;49.092;8.516;2023-05-16T10:16:50;14.90;49.60
12156;DHT22;6141;49.092;8.516;2023-05-16T10:19:20;14.80;47.30
12156;DHT22;6141;49.092;8.516;2023-05-16T10:21:56;14.70;47.70
12156;DHT22;6141;49.092;8.516;2023-05-16T10:24:30;14.60;48.60
12156;DHT22;6141;49.092;8.516;2023-05-16T10:27:01;14.40;47.90
12156;DHT22;6141;49.092;8.516;2023-05-16T10:29:31;14.30;48.90
12156;DHT22;6141;49.092;8.516;2023-05-16T10:32:23;14.20;48.80
12156;DHT22;6141;49.092;8.516;2023-05-16T10:34:52;14.10;47.40
12156;DHT22;6141;49.092;8.516;2023-05-16T10:37:22;13.80;48.50
12156;DHT22;6141;49.092;8.516;2023-05-16T10:39:52;13.80;48.50
12156;DHT22;6141;49.092;8.516;2023-05-16T10:42:21;13.80;48.10
12156;DHT22;6141;49.092;8.516;2023-05-16T10:44:53;13.60;48.30
12156;DHT22;6141;49.092;8.516;2023-05-16T10:47:33;13.60;48.30
12156;DHT22;6141;49.092;8.516;2023-05-16T10:50:02;13.60;47.50
12156;DHT22;6141;49.092;8.516;2023-05-16T10:52:34;13.50;49.60
12156;DHT22;6141;49.092;8.516;2023-05-16T10:55:04;13.50;47.20
12156;DHT22;6141;49.092;8.516;2023-05-16T10:57:33;13.60;48.00
12156;DHT22;6141;49.092;8.516;2023-05-16T11:00:07;13.70;48.40
12156;DHT22;6141;49.092;8.516;2023-05-16T11:02:41;13.80;46.40
12156;DHT22;6141;49.092;8.516;2023-05-16T11:05:16;13.90;44.40
12156;DHT22;6141;49.092;8.516;2023-05-16T11:08:02;13.80;45.10
12156;DHT22;6141;49.092;8.516;2023-05-16T11:10:32;13.80;45.30
12156;DHT22;6141;49.092;8.516;2023-05-16T11:13:07;13.90;46.20
12156;DHT22;6141;49.092;8.516;2023-05-16T11:15:35;13.90;47.40
12156;DHT22;6141;49.092;8.516;2023-05-16T11:18:07;14.10;45.40
12156;DHT22;6141;49.092;8.516;2023-05-16T11:20:37;14.10;47.00
12156;DHT22;6141;49.092;8.516;2023-05-16T11:23:20;14.20;45.30
12156;DHT22;6141;49.092;8.516;2023-05-16T11:25:52;14.20;45.60
12156;DHT22;6141;49.092;8.516;2023-05-16T11:28:21;14.20;45.90
12156;DHT22;6141;49.092;8.516;2023-05-16T11:30:52;14.20;45.60
12156;DHT22;6141;49.092;8.516;2023-05-16T11:33:24;14.30;45.10
12156;DHT22;6141;49.092;8.516;2023-05-16T11:36:01;14.20;45.20
12156;DHT22;6141;49.092;8.516;2023-05-16T11:38:42;14.20;44.60
12156;DHT22;6141;49.092;8.516;2023-05-16T11:41:11;14.20;45.50
12156;DHT22;6141;49.092;8.516;2023-05-16T11:43:44;14.40;42.90
12156;DHT22;6141;49.092;8.516;2023-05-16T11:46:13;14.60;43.00
12156;DHT22;6141;49.092;8.516;2023-05-16T11:48:44;14.70;43.10
12156;DHT22;6141;49.092;8.516;2023-05-16T11:51:14;14.60;43.00
12156;DHT22;6141;49.092;8.516;2023-05-16T11:53:46;14.70;41.00
12156;DHT22;6141;49.092;8.516;2023-05-16T11:56:15;14.50;40.80
12156;DHT22;6141;49.092;8.516;2023-05-16T11:58:44;14.50;42.80
12156;DHT22;6141;49.092;8.516;2023-05-16T12:01:13;14.50;43.00
12156;DHT22;6141;49.092;8.516;2023-05-16T12:03:54;14.60;43.00
12156;DHT22;6141;49.092;8.516;2023-05-16T12:06:24;14.60;42.00
12156;DHT22;6141;49.092;8.516;2023-05-16T12:08:53;14.60;42.80
12156;DHT22;6141;49.092;8.516;2023-05-16T12:11:22;14.60;41.60
12156;DHT22;6141;49.092;8.516;2023-05-16T12:13:52;14.50;40.80
12156;DHT22;6141;49.092;8.516;2023-05-16T12:16:22;14.60;42.20
12156;DHT22;6141;49.092;8.516;2023-05-16T12:18:52;14.60;41.40
12156;DHT22;6141;49.092;8.516;2023-05-16T12:21:21;14.60;41.90
12156;DHT22;6141;49.092;8.516;2023-05-16T12:23:54;14.60;40.40
12156;DHT22;6141;49.092;8.516;2023-05-16T12:26:27;14.60;41.70
12156;DHT22;6141;49.092;8.516;2023-05-16T12:28:57;14.60;39.20
12156;DHT22;6141;49.092;8.516;2023-05-16T12:31:27;14.60;39.70
12156;DHT22;6141;49.092;8.516;2023-05-16T12:34:01;14.50;38.90
12156;DHT22;6141;49.092;8.516;2023-05-16T12:36:31;14.50;42.90
12156;DHT22;6141;49.092;8.516;2023-05-16T12:39:01;14.50;41.10
12156;DHT22;6141;49.092;8.516;2023-05-16T12:41:30;14.60;39.90
12156;DHT22;6141;49.092;8.516;2023-05-16T12:44:06;14.60;42.40
12156;DHT22;6141;49.092;8.516;2023-05-16T12:46:36;14.60;41.00
12156;DHT22;6141;49.092;8.516;2023-05-16T12:49:09;14.70;42.70
12156;DHT22;6141;49.092;8.516;2023-05-16T12:51:37;14.80;40.80
12156;DHT22;6141;49.092;8.516;2023-05-16T12:54:08;14.80;40.80
12156;DHT22;6141;49.092;8.516;2023-05-16T12:56:38;14.90;39.90
12156;DHT22;6141;49.092;8.516;2023-05-16T12:59:07;15.00;41.10
12156;DHT22;6141;49.092;8.516;2023-05-16T13:01:36;15.10;41.30
12156;DHT22;6141;49.092;8.516;2023-05-16T13:04:09;15.10;40.30
12156;DHT22;6141;49.092;8.516;2023-05-16T13:06:42;15.00;40.10
12156;DHT22;6141;49.092;8.516;2023-05-16T13:09:25;15.00;39.30
12156;DHT22;6141;49.092;8.516;2023-05-16T13:11:58;14.90;39.90
12156;DHT22;6141;49.092;8.516;2023-05-16T13:14:27;14.80;39.50
12156;DHT22;6141;49.092;8.516;2023-05-16T13:16:56;14.70;40.60
12156;DHT22;6141;49.092;8.516;2023-05-16T13:19:26;14.80;40.00
12156;DHT22;6141;49.092;8.516;2023-05-16T13:21:57;14.80;38.30
12156;DHT22;6141;49.092;8.516;2023-05-16T13:24:26;14.70;38.40
12156;DHT22;6141;49.092;8.516;2023-05-16T13:26:55;14.70;38.30
12156;DHT22;6141;49.092;8.516;2023-05-16T13:29:26;14.70;38.70
12156;DHT22;6141;49.092;8.516;2023-05-16T13:31:56;14.70;39.10
12156;DHT22;6141;49.092;8.516;2023-05-16T13:34:26;14.70;38.70
12156;DHT22;6141;49.092;8.516;2023-05-16T13:36:55;14.80;38.10
12156;DHT22;6141;49.092;8.516;2023-05-16T13:39:25;14.70;36.80
12156;DHT22;6141;49.092;8.516;2023-05-16T13:41:53;14.60;36.70
12156;DHT22;6141;49.092;8.516;2023-05-16T13:44:22;14.80;36.80
12156;DHT22;6141;49.092;8.516;2023-05-16T13:46:52;14.90;37.00
12156;DHT22;6141;49.092;8.516;2023-05-16T13:49:21;14.90;35.40
12156;DHT22;6141;49.092;8.516;2023-05-16T13:51:52;14.90;37.00
12156;DHT22;6141;49.092;8.516;2023-05-16T13:54:22;15.00;36.80
12156;DHT22;6141;49.092;8.516;2023-05-16T13:56:50;15.10;33.60
12156;DHT22;6141;49.092;8.516;2023-05-16T13:59:19;15.10;34.40
12156;DHT22;6141;49.092;8.516;2023-05-16T14:02:07;15.20;36.00
12156;DHT22;6141;49.092;8.516;2023-05-16T14:04:36;15.10;32.70
12156;DHT22;6141;49.092;8.516;2023-05-16T14:07:06;15.00;33.30
12156;DHT22;6141;49.092;8.516;2023-05-16T14:09:35;14.90;33.50
12156;DHT22;6141;49.092;8.516;2023-05-16T14:12:06;15.00;32.20
12156;DHT22;6141;49.092;8.516;2023-05-16T14:14:35;15.00;33.30
12156;DHT22;6141;49.092;8.516;2023-05-16T14:17:03;15.10;33.00
12156;DHT22;6141;49.092;8.516;2023-05-16T14:19:33;15.10;34.00
12156;DHT22;6141;49.092;8.516;2023-05-16T14:22:03;15.10;31.70
12156;DHT22;6141;49.092;8.516;2023-05-16T14:24:33;15.20;30.80
12156;DHT22;6141;49.092;8.516;2023-05-16T14:27:02;15.10;30.30
12156;DHT22;6141;49.092;8.516;2023-05-16T14:29:31;15.00;30.80
12156;DHT22;6141;49.092;8.516;2023-05-16T14:32:00;14.80;30.40
12156;DHT22;6141;49.092;8.516;2023-05-16T14:34:28;14.80;34.20
12156;DHT22;6141;49.092;8.516;2023-05-16T14:36:57;14.90;32.70
12156;DHT22;6141;49.092;8.516;2023-05-16T14:39:26;14.90;31.20
12156;DHT22;6141;49.092;8.516;2023-05-16T14:41:56;15.00;32.60
12156;DHT22;6141;49.092;8.516;2023-05-16T14:44:24;15.10;30.70
12156;DHT22;6141;49.092;8.516;2023-05-16T14:46:53;15.20;31.60
12156;DHT22;6141;49.092;8.516;2023-05-16T14:49:21;15.40;30.30
12156;DHT22;6141;49.092;8.516;2023-05-16T14:51:51;15.40;31.00
12156;DHT22;6141;49.092;8.516;2023-05-16T14:54:20;15.50;31.10
12156;DHT22;6141;49.092;8.516;2023-05-16T14:56:48;15.60;30.60
12156;DHT22;6141;49.092;8.516;2023-05-16T14:59:21;15.50;26.90
12156;DHT22;6141;49.092;8.516;2023-05-16T15:01:50;15.30;27.40
12156;DHT22;6141;49.092;8.516;2023-05-16T15:04:18;15.40;28.30
12156;DHT22;6141;49.092;8.516;2023-05-16T15:06:47;15.50;27.90
12156;DHT22;6141;49.092;8.516;2023-05-16T15:09:16;15.50;26.90
12156;DHT22;6141;49.092;8.516;2023-05-16T15:11:45;15.40;26.80
12156;DHT22;6141;49.092;8.516;2023-05-16T15:14:13;15.40;27.50
12156;DHT22;6141;49.092;8.516;2023-05-16T15:16:43;15.60;26.50
12156;DHT22;6141;49.092;8.516;2023-05-16T15:19:13;15.60;27.10
12156;DHT22;6141;49.092;8.516;2023-05-16T15:21:42;15.80;26.20
12156;DHT22;6141;49.092;8.516;2023-05-16T15:24:11;15.90;26.20
12156;DHT22;6141;49.092;8.516;2023-05-16T15:26:40;15.90;26.20
12156;DHT22;6141;49.092;8.516;2023-05-16T15:29:09;15.80;26.10
12156;DHT22;6141;49.092;8.516;2023-05-16T15:31:38;15.80;27.20
12156;DHT22;6141;49.092;8.516;2023-05-16T15:34:08;15.90;26.20
12156;DHT22;6141;49.092;8.516;2023-05-16T15:36:38;15.90;26.40
12156;DHT22;6141;49.092;8.516;2023-05-16T15:39:06;16.10;27.60
12156;DHT22;6141;49.092;8.516;2023-05-16T15:41:38;16.10;26.30
12156;DHT22;6141;49.092;8.516;2023-05-16T15:44:26;16.00;26.20
12156;DHT22;6141;49.092;8.516;2023-05-16T15:46:55;16.10;27.40
12156;DHT22;6141;49.092;8.516;2023-05-16T15:49:26;16.10;26.30
12156;DHT22;6141;49.092;8.516;2023-05-16T15:51:55;16.20;27.30
12156;DHT22;6141;49.092;8.516;2023-05-16T15:54:23;16.30;29.00
12156;DHT22;6141;49.092;8.516;2023-05-16T15:56:52;16.40;27.10
12156;DHT22;6141;49.092;8.516;2023-05-16T15:59:22;16.40;27.40
12156;DHT22;6141;49.092;8.516;2023-05-16T16:01:50;16.60;25.00
12156;DHT22;6141;49.092;8.516;2023-05-16T16:04:20;16.70;26.80